Time;durP1;ratioP1;P1;durP2;ratioP2;P2;SDS_P1;SDS_P2;PMS_P1;PMS_P2;Temp;Humidity;BMP_temperature;BMP_pressure;BME280_temperature;BME280_humidity;BME280_pressure;Samples;Min_cycle;Max_cycle;Signal;HPM_P1;HPM_P2
2021/12/01 00:00:45;;;;;;;5.40;1.87;;;;;;;3.81;86.55;98852.71;2924968;81;21030;-77
2021/12/01 00:04:47;;;;;;;4.83;1.77;;;;;;;3.80;86.63;98870.77;2923944;81;21086;-74
2021/12/01 00:08:49;;;;;;;12.85;2.05;;;;;;;3.89;86.71;98890.27;2924090;81;20971;-75
2021/12/01 00:12:52;;;;;;;2.33;1.62;;;;;;;3.94;85.97;98887.30;2923885;81;21496;-76
2021/12/01 00:16:53;;;;;;;11.20;2.90;;;;;;;3.95;85.17;98887.66;2924237;81;21035;-76
2021/12/01 00:20:56;;;;;;;13.60;3.83;;;;;;;4.05;84.35;98895.19;2924123;81;21082;-76
2021/12/01 00:24:58;;;;;;;4.35;2.15;;;;;;;4.17;84.52;98895.20;2924328;81;21031;-77
2021/12/01 00:29:00;;;;;;;5.05;1.98;;;;;;;4.13;84.27;98898.08;2923939;81;21106;-77
2021/12/01 00:33:02;;;;;;;7.03;3.27;;;;;;;4.21;84.15;98901.41;2923162;81;21348;-73
2021/12/01 00:37:04;;;;;;;5.28;1.60;;;;;;;4.25;84.11;98904.64;2923226;81;21535;-75
2021/12/01 00:41:07;;;;;;;5.78;1.55;;;;;;;4.18;83.90;98910.03;2919835;81;21058;-77
2021/12/01 00:45:18;;;;;;;10.20;1.82;;;;;;;4.20;83.41;98937.08;2920158;81;21055;-77
2021/12/01 00:49:20;;;;;;;2.30;1.75;;;;;;;4.30;83.38;98941.97;2920102;81;21050;-76
2021/12/01 00:53:22;;;;;;;3.47;1.90;;;;;;;4.34;83.13;98953.11;2920465;81;21085;-75
2021/12/01 00:57:24;;;;;;;2.42;1.60;;;;;;;4.27;82.96;98960.64;2921004;81;21027;-74
2021/12/01 01:01:25;;;;;;;2.75;1.00;;;;;;;4.32;83.12;98958.48;2921275;81;21364;-74
2021/12/01 01:05:27;;;;;;;3.35;0.93;;;;;;;4.27;82.92;98975.12;2921565;81;21027;-77
2021/12/01 01:09:32;;;;;;;2.50;1.20;;;;;;;4.24;82.66;98989.84;2921149;81;21067;-75
2021/12/01 01:22:13;;;;;;;3.77;1.45;;;;;;;4.12;81.98;99001.64;2922184;81;21066;-74
2021/12/01 01:26:17;;;;;;;2.22;0.95;;;;;;;4.15;81.02;98997.95;2921840;81;21023;-75
2021/12/01 01:30:19;;;;;;;2.15;0.85;;;;;;;4.18;81.53;99011.38;2921758;81;21078;-75
2021/12/01 01:34:23;;;;;;;2.77;1.00;;;;;;;3.95;81.16;99005.56;2921946;81;21008;-74
2021/12/01 01:38:25;;;;;;;1.62;1.35;;;;;;;3.96;81.05;99016.94;2922139;81;21777;-72
2021/12/01 01:42:26;;;;;;;1.67;0.80;;;;;;;3.96;81.41;99010.36;2922291;81;21051;-75
2021/12/01 01:46:35;;;;;;;1.22;1.00;;;;;;;3.84;81.44;99039.25;2922085;81;21000;-72
2021/12/01 01:50:40;;;;;;;4.17;2.15;;;;;;;3.87;81.47;99021.09;2922216;81;21075;-75
2021/12/01 01:54:42;;;;;;;2.98;1.87;;;;;;;3.84;81.69;99039.73;2922637;81;21016;-71
2021/12/01 01:58:43;;;;;;;6.60;2.33;;;;;;;3.79;82.17;99040.07;2922766;81;21046;-77
2021/12/01 02:02:46;;;;;;;3.30;1.27;;;;;;;3.71;82.54;99041.09;2922739;81;22269;-72
2021/12/01 02:06:49;;;;;;;7.17;2.02;;;;;;;3.70;82.93;99043.36;2922697;81;21034;-74
2021/12/01 02:10:52;;;;;;;5.83;1.90;;;;;;;3.60;83.26;99047.14;2922934;81;21090;-76
2021/12/01 02:14:54;;;;;;;4.22;1.42;;;;;;;3.46;83.51;99053.41;2922651;81;21274;-75
2021/12/01 02:18:55;;;;;;;9.65;1.30;;;;;;;3.30;84.06;99052.36;2922783;81;20985;-71
2021/12/01 02:23:00;;;;;;;5.75;1.50;;;;;;;3.11;85.21;99054.98;2922656;81;21023;-75
2021/12/01 02:27:02;;;;;;;3.37;1.62;;;;;;;3.02;85.56;99060.87;2922247;81;21075;-74
2021/12/01 02:31:04;;;;;;;7.72;1.90;;;;;;;3.02;85.58;99061.36;2922321;81;21682;-74
2021/12/01 02:35:06;;;;;;;3.90;2.12;;;;;;;3.07;85.24;99055.30;2922623;81;21087;-74
2021/12/01 02:39:13;;;;;;;4.87;2.35;;;;;;;3.09;85.49;99061.28;2922381;81;21043;-72
2021/12/01 02:43:16;;;;;;;4.58;2.58;;;;;;;2.90;86.50;99055.17;2922210;81;21050;-76
2021/12/01 02:47:18;;;;;;;4.15;1.57;;;;;;;2.81;86.94;99063.22;2922037;81;21082;-74
2021/12/01 02:51:24;;;;;;;2.35;1.20;;;;;;;2.79;86.48;99062.49;2922177;81;21074;-74
2021/12/01 02:55:28;;;;;;;5.85;1.90;;;;;;;2.84;85.96;99061.20;2921544;81;20980;-77
2021/12/01 02:59:29;;;;;;;18.87;3.65;;;;;;;2.91;85.55;99062.11;2922155;81;21047;-74
2021/12/01 03:03:31;;;;;;;6.45;3.00;;;;;;;3.02;85.46;99057.41;2922437;81;21059;-77
2021/12/01 03:07:33;;;;;;;4.85;2.72;;;;;;;3.05;85.14;99065.94;2922221;81;21086;-77
2021/12/01 03:11:37;;;;;;;8.95;3.47;;;;;;;3.11;85.02;99063.32;2922010;81;21484;-73
2021/12/01 03:15:39;;;;;;;5.30;2.65;;;;;;;3.14;85.17;99056.07;2922029;81;21054;-74
2021/12/01 03:19:40;;;;;;;9.20;2.87;;;;;;;3.11;84.69;99060.23;2922186;81;21011;-76
2021/12/01 03:23:42;;;;;;;4.55;2.22;;;;;;;3.00;85.22;99051.80;2922098;81;21074;-74
2021/12/01 03:27:44;;;;;;;4.75;1.52;;;;;;;2.99;85.23;99049.27;2921983;81;21074;-77
2021/12/01 03:31:46;;;;;;;12.88;7.58;;;;;;;3.01;85.27;99052.62;2921885;81;21101;-71
2021/12/01 03:35:51;;;;;;;17.42;6.92;;;;;;;3.02;84.99;99041.66;2922014;81;21003;-74
2021/12/01 03:39:53;;;;;;;21.75;10.15;;;;;;;3.04;85.39;99042.38;2923575;81;21059;-76
2021/12/01 03:43:55;;;;;;;35.43;14.13;;;;;;;3.06;85.47;99043.97;2925821;81;21070;-75
2021/12/01 03:47:56;;;;;;;22.22;10.65;;;;;;;3.16;85.49;99042.84;2925267;81;21050;-75
2021/12/01 03:51:58;;;;;;;15.60;9.90;;;;;;;3.22;85.59;99039.77;2925324;81;21038;-74
2021/12/01 03:56:00;;;;;;;15.43;5.53;;;;;;;3.27;85.76;99035.01;2925540;81;21031;-75
2021/12/01 04:00:09;;;;;;;10.30;3.85;;;;;;;3.36;85.96;99028.75;2925712;81;21013;-74
2021/12/01 04:04:10;;;;;;;5.95;3.37;;;;;;;3.46;85.87;99024.48;2926989;81;20996;-70
2021/12/01 04:08:12;;;;;;;11.28;3.90;;;;;;;3.53;85.70;99007.30;2927296;80;21019;-76
2021/12/01 04:12:14;;;;;;;6.17;2.87;;;;;;;3.62;85.48;98992.64;2927265;81;21041;-72
2021/12/01 04:16:15;;;;;;;7.30;2.12;;;;;;;3.66;85.33;98989.31;2927481;81;20995;-74
2021/12/01 04:20:19;;;;;;;7.00;3.20;;;;;;;3.74;85.25;98985.66;2927011;81;21078;-73
2021/12/01 04:24:21;;;;;;;15.93;6.65;;;;;;;3.77;85.04;98981.48;2926757;81;21015;-77
2021/12/01 04:28:23;;;;;;;5.80;2.70;;;;;;;3.79;85.02;98983.52;2926423;81;21090;-76
2021/12/01 04:32:26;;;;;;;6.17;2.67;;;;;;;3.84;85.06;98978.74;2926386;81;20948;-79
2021/12/01 04:36:33;;;;;;;9.38;1.92;;;;;;;3.85;85.28;98973.02;2926031;81;21070;-77
2021/12/01 04:40:33;;;;;;;10.23;4.05;;;;;;;3.88;85.43;98962.72;2925690;81;21055;-77
2021/12/01 04:44:37;;;;;;;8.43;2.90;;;;;;;3.96;85.67;98968.27;2925779;81;21042;-77
2021/12/01 04:48:38;;;;;;;11.48;3.35;;;;;;;4.04;85.54;98956.66;2926203;81;21015;-78
2021/12/01 04:52:40;;;;;;;4.00;2.92;;;;;;;4.08;85.41;98959.91;2926201;81;21464;-78
2021/12/01 04:56:45;;;;;;;9.63;3.37;;;;;;;4.08;85.63;98962.05;2925935;81;21586;-78
2021/12/01 05:00:47;;;;;;;8.13;3.12;;;;;;;4.10;85.53;98956.68;2926255;81;21050;-78
2021/12/01 05:04:49;;;;;;;6.62;3.25;;;;;;;4.16;85.46;98958.02;2927562;81;20980;-71
2021/12/01 05:08:50;;;;;;;6.92;3.45;;;;;;;4.19;85.50;98952.51;2927784;81;21027;-73
2021/12/01 05:12:52;;;;;;;6.70;3.30;;;;;;;4.18;85.67;98942.94;2927864;81;21011;-76
2021/12/01 05:16:54;;;;;;;8.08;3.27;;;;;;;4.08;85.56;98946.26;2927424;81;20996;-80
2021/12/01 05:20:56;;;;;;;13.72;3.58;;;;;;;4.16;85.12;98946.98;2927073;81;21035;-81
2021/12/01 05:24:58;;;;;;;4.67;3.00;;;;;;;4.22;84.56;98946.51;2927120;81;21078;-75
2021/12/01 05:28:59;;;;;;;5.72;3.27;;;;;;;4.10;84.80;98935.63;2927601;81;21077;-74
2021/12/01 05:33:05;;;;;;;15.00;6.60;;;;;;;4.04;85.15;98929.03;2927500;81;21050;-77
2021/12/01 05:37:05;;;;;;;6.78;4.90;;;;;;;3.99;85.53;98921.48;2926858;81;21058;-78
2021/12/01 05:41:07;;;;;;;10.28;3.58;;;;;;;3.81;86.46;98925.05;2926934;80;20983;-78
2021/12/01 05:45:09;;;;;;;5.78;3.52;;;;;;;3.71;87.22;98928.00;2924012;81;21022;-78
2021/12/01 05:49:10;;;;;;;12.53;4.75;;;;;;;3.66;87.68;98919.16;2923721;81;21031;-78
2021/12/01 05:53:13;;;;;;;9.85;5.03;;;;;;;3.71;87.53;98893.80;2924374;81;21026;-75
2021/12/01 05:57:15;;;;;;;10.32;3.83;;;;;;;3.71;87.57;98896.44;2924408;81;21026;-79
2021/12/01 06:01:16;;;;;;;8.30;2.45;;;;;;;3.59;88.50;98887.69;2924475;81;21333;-77
2021/12/01 06:05:20;;;;;;;7.45;2.67;;;;;;;3.57;88.70;98885.19;2924862;81;21568;-78
2021/12/01 06:09:22;;;;;;;9.98;3.08;;;;;;;3.59;88.85;98875.85;2925097;81;21018;-78
2021/12/01 06:13:24;;;;;;;10.63;3.02;;;;;;;3.56;88.95;98865.11;2925490;81;20987;-80
2021/12/01 06:17:26;;;;;;;7.55;3.15;;;;;;;3.62;88.89;98858.52;2925233;81;20983;-76
2021/12/01 06:21:28;;;;;;;9.98;3.55;;;;;;;3.65;88.73;98855.69;2925294;81;21014;-77
2021/12/01 06:25:30;;;;;;;11.63;6.05;;;;;;;3.75;88.20;98850.56;2925215;81;21058;-78
2021/12/01 06:29:32;;;;;;;6.97;3.98;;;;;;;3.83;87.91;98845.53;2924958;81;21027;-79
2021/12/01 06:33:34;;;;;;;57.70;28.25;;;;;;;3.88;87.18;98831.19;2925092;81;21038;-76
2021/12/01 06:37:36;;;;;;;17.73;9.55;;;;;;;3.88;87.58;98824.61;2925381;81;21030;-79
2021/12/01 06:41:38;;;;;;;19.12;8.78;;;;;;;3.86;87.49;98818.98;2924885;81;20983;-77
2021/12/01 06:45:39;;;;;;;63.33;22.62;;;;;;;3.77;88.16;98810.97;2925235;81;21050;-74
2021/12/01 06:49:45;;;;;;;39.25;16.35;;;;;;;3.83;87.93;98807.86;2925129;81;20919;-79
2021/12/01 06:53:45;;;;;;;24.40;13.05;;;;;;;3.85;87.83;98805.97;2924955;81;20948;-77
2021/12/01 06:57:48;;;;;;;20.88;11.15;;;;;;;3.96;87.61;98808.58;2925842;81;21011;-78
2021/12/01 07:01:49;;;;;;;24.05;11.03;;;;;;;4.06;87.72;98801.30;2925732;81;21060;-80
2021/12/01 07:05:51;;;;;;;76.10;40.80;;;;;;;4.16;87.65;98794.83;2925462;81;21038;-79
2021/12/01 07:09:54;;;;;;;55.48;28.50;;;;;;;4.12;87.95;98788.47;2924975;81;21038;-81
2021/12/01 07:13:56;;;;;;;34.65;17.42;;;;;;;4.13;88.59;98780.96;2925234;81;20975;-76
2021/12/01 07:17:58;;;;;;;36.88;16.75;;;;;;;4.24;88.56;98775.30;2925185;81;20986;-80
2021/12/01 07:22:00;;;;;;;27.10;14.20;;;;;;;4.25;88.85;98773.88;2924467;81;21008;-81
2021/12/01 07:26:02;;;;;;;41.20;15.93;;;;;;;4.29;88.65;98777.08;2924734;81;20998;-76
2021/12/01 07:30:06;;;;;;;22.58;8.78;;;;;;;4.47;88.78;98768.67;2923130;81;21050;-78
2021/12/01 07:34:07;;;;;;;22.32;12.50;;;;;;;4.52;89.16;98755.95;2922176;81;21030;-80
2021/12/01 07:38:09;;;;;;;41.42;21.50;;;;;;;4.61;89.42;98746.00;2924639;81;21012;-77
2021/12/01 07:42:13;;;;;;;33.53;17.67;;;;;;;4.73;88.94;98720.45;2924480;81;22062;-79
2021/12/01 07:46:15;;;;;;;21.57;13.98;;;;;;;4.62;90.00;98706.85;2923601;81;20979;-80
2021/12/01 07:50:17;;;;;;;24.32;11.03;;;;;;;4.50;90.75;98697.31;2923736;81;21642;-77
2021/12/01 07:54:19;;;;;;;30.25;16.02;;;;;;;4.39;91.30;98684.56;2924019;81;21078;-78
2021/12/01 07:58:21;;;;;;;15.75;9.83;;;;;;;4.46;91.63;98674.84;2924451;81;21026;-79
2021/12/01 08:02:23;;;;;;;18.10;9.58;;;;;;;4.56;91.35;98675.27;2923507;81;20990;-77
2021/12/01 08:06:26;;;;;;;18.90;10.75;;;;;;;4.65;91.59;98678.94;2924000;81;21570;-75
2021/12/01 08:10:28;;;;;;;16.73;8.93;;;;;;;4.71;92.00;98669.20;2924196;81;21058;-77
2021/12/01 08:14:29;;;;;;;16.85;7.90;;;;;;;4.69;92.25;98662.41;2924724;81;21019;-75
2021/12/01 08:18:31;;;;;;;15.38;7.72;;;;;;;4.67;93.04;98652.48;2924875;81;21054;-78
2021/12/01 08:22:33;;;;;;;12.35;6.50;;;;;;;4.70;93.19;98631.97;2925351;81;21003;-78
2021/12/01 08:26:34;;;;;;;21.20;15.72;;;;;;;4.63;94.06;98622.11;2924388;81;21511;-76
2021/12/01 08:30:36;;;;;;;47.62;24.27;;;;;;;4.68;94.57;98622.55;2924132;81;21054;-76
2021/12/01 08:34:38;;;;;;;30.05;19.77;;;;;;;4.78;94.24;98610.25;2924333;81;21010;-77
2021/12/01 08:38:41;;;;;;;36.03;22.82;;;;;;;4.79;94.89;98611.09;2925008;81;20959;-75
2021/12/01 08:42:44;;;;;;;28.77;17.17;;;;;;;4.92;95.21;98613.05;2912023;81;21058;-77
2021/12/01 08:46:46;;;;;;;18.35;11.22;;;;;;;5.09;94.79;98602.84;2909843;81;20963;-75
2021/12/01 08:50:47;;;;;;;25.95;13.98;;;;;;;5.11;94.48;98597.80;2909862;82;21035;-73
2021/12/01 08:54:49;;;;;;;12.98;9.58;;;;;;;5.26;94.59;98593.49;2909328;81;21012;-76
2021/12/01 08:58:51;;;;;;;17.67;9.45;;;;;;;5.38;94.15;98578.41;2909068;82;21031;-77
2021/12/01 09:02:53;;;;;;;10.68;7.10;;;;;;;5.37;94.60;98568.32;2909383;82;21077;-75
2021/12/01 09:06:55;;;;;;;16.20;10.10;;;;;;;5.42;94.72;98550.78;2909297;82;20995;-77
2021/12/01 09:11:02;;;;;;;18.37;10.28;;;;;;;5.49;95.20;98541.85;2909171;81;21210;-74
2021/12/01 09:15:05;;;;;;;28.90;20.92;;;;;;;5.60;94.93;98535.15;2909454;81;21385;-77
2021/12/01 09:19:07;;;;;;;12.70;8.33;;;;;;;5.81;95.20;98537.64;2909516;82;21050;-78
2021/12/01 09:23:08;;;;;;;7.15;3.92;;;;;;;5.97;95.35;98517.79;2909654;82;20996;-76
2021/12/01 09:27:10;;;;;;;69.15;31.85;;;;;;;6.10;94.81;98516.21;2909515;81;21031;-76
2021/12/01 09:31:12;;;;;;;5.67;2.62;;;;;;;6.24;94.30;98516.25;2909495;81;21003;-76
2021/12/01 09:35:15;;;;;;;85.12;34.65;;;;;;;6.41;93.26;98501.00;2909244;82;21023;-79
2021/12/01 09:39:17;;;;;;;81.55;33.95;;;;;;;6.49;92.73;98498.15;2908837;81;21027;-78
2021/12/01 09:43:25;;;;;;;18.25;7.20;;;;;;;6.65;93.21;98497.03;2923196;81;21089;-77
2021/12/01 09:47:26;;;;;;;8.75;5.00;;;;;;;6.78;92.58;98487.95;2925196;81;21023;-80
2021/12/01 09:51:28;;;;;;;6.28;4.62;;;;;;;6.99;91.05;98483.25;2925203;81;20999;-74
2021/12/01 09:55:30;;;;;;;5.22;3.40;;;;;;;7.13;90.29;98482.42;2925038;81;21050;-78
2021/12/01 09:59:31;;;;;;;9.35;4.30;;;;;;;7.18;89.93;98474.88;2924906;81;20971;-76
2021/12/01 10:03:35;;;;;;;9.60;5.28;;;;;;;7.32;89.88;98462.13;2924797;81;21030;-78
2021/12/01 10:07:36;;;;;;;5.90;3.87;;;;;;;7.34;89.65;98451.72;2925335;81;21019;-79
2021/12/01 10:11:42;;;;;;;5.97;4.17;;;;;;;7.44;90.16;98455.62;2910209;81;21039;-80
2021/12/01 10:15:44;;;;;;;2.45;2.05;;;;;;;7.60;89.82;98449.67;2925375;81;21035;-77
2021/12/01 10:19:45;;;;;;;4.30;2.98;;;;;;;7.65;88.32;98439.92;2924859;80;21266;-78
2021/12/01 10:23:52;;;;;;;6.80;3.87;;;;;;;7.63;88.57;98432.16;2924090;81;21018;-75
2021/12/01 10:27:53;;;;;;;;;;;;;;;7.55;89.22;98423.66;2926795;81;21511;-76
2021/12/01 10:32:02;;;;;;;5.20;2.60;;;;;;;7.64;88.29;98414.45;2923652;81;20119;-78
2021/12/01 10:36:07;;;;;;;6.35;3.52;;;;;;;7.65;88.21;98398.91;2922454;81;21567;-78
2021/12/01 10:40:15;;;;;;;5.72;2.83;;;;;;;7.64;88.06;98388.83;2923511;80;21551;-79
2021/12/01 10:44:19;;;;;;;4.55;3.45;;;;;;;7.67;88.17;98374.47;2924348;81;20995;-78
2021/12/01 10:48:26;;;;;;;9.03;5.47;;;;;;;7.62;88.60;98359.53;2923945;81;21550;-76
2021/12/01 10:52:37;;;;;;;16.60;9.48;;;;;;;7.67;88.30;98348.01;2923289;81;21054;-75
2021/12/01 10:56:38;;;;;;;7.65;4.62;;;;;;;7.62;88.72;98332.59;2921735;81;21072;-79
2021/12/01 11:00:47;;;;;;;4.00;3.58;;;;;;;7.69;88.33;98310.31;2922213;81;21038;-78
2021/12/01 11:04:51;;;;;;;5.42;4.47;;;;;;;7.70;88.29;98302.20;2922104;81;21011;-79
2021/12/01 11:08:57;;;;;;;10.50;5.62;;;;;;;7.66;89.21;98288.10;2923285;81;21011;-78
2021/12/01 11:13:02;;;;;;;4.47;3.77;;;;;;;7.66;88.91;98292.07;2923259;81;21046;-77
2021/12/01 11:17:04;;;;;;;6.60;3.47;;;;;;;7.69;89.29;98278.55;2922856;81;21049;-79
2021/12/01 11:21:15;;;;;;;3.70;3.35;;;;;;;7.66;88.81;98269.58;2922942;81;20995;-77
2021/12/01 11:25:22;;;;;;;3.75;2.70;;;;;;;7.64;89.13;98263.61;2922992;81;21069;-77
2021/12/01 11:29:26;;;;;;;2.65;2.35;;;;;;;7.68;88.08;98263.15;2922420;81;21066;-78
2021/12/01 11:33:29;;;;;;;6.15;3.27;;;;;;;7.69;87.69;98250.25;2922519;81;21007;-76
2021/12/01 11:37:31;;;;;;;5.22;3.00;;;;;;;7.72;86.81;98245.97;2923035;81;21542;-79
2021/12/01 11:41:36;;;;;;;6.53;3.47;;;;;;;7.81;85.89;98232.79;2923392;81;21058;-80
2021/12/01 11:45:41;;;;;;;8.35;3.67;;;;;;;7.93;86.11;98216.94;2924057;81;21034;-79
2021/12/01 11:49:44;;;;;;;3.00;1.93;;;;;;;7.99;84.37;98215.48;2924003;81;21705;-79
2021/12/01 11:53:54;;;;;;;8.65;4.85;;;;;;;8.10;84.40;98205.92;2924017;81;20975;-76
2021/12/01 11:57:56;;;;;;;6.65;3.92;;;;;;;8.19;84.46;98204.13;2923711;81;21047;-77
2021/12/01 12:02:07;;;;;;;7.60;5.40;;;;;;;8.22;83.64;98196.34;2924023;81;21037;-77
2021/12/01 12:06:23;;;;;;;10.78;7.28;;;;;;;8.33;83.44;98189.90;2922734;81;20999;-77
2021/12/01 12:10:30;;;;;;;4.78;3.72;;;;;;;8.33;82.95;98180.63;2924309;81;20952;-79
2021/12/01 12:14:40;;;;;;;4.40;3.20;;;;;;;8.36;82.97;98175.84;2924125;81;21026;-75
2021/12/01 12:18:48;;;;;;;7.28;4.58;;;;;;;8.33;83.04;98168.23;2924781;81;20995;-76
2021/12/01 12:22:55;;;;;;;6.47;4.17;;;;;;;8.55;82.68;98165.95;2924953;81;20995;-75
2021/12/01 12:27:02;;;;;;;8.03;5.03;;;;;;;8.67;81.87;98154.05;2925437;81;21035;-71
2021/12/01 12:31:25;;;;;;;10.23;5.60;;;;;;;8.78;81.09;98147.58;2925552;81;20991;-74
2021/12/01 12:35:32;;;;;;;5.10;3.42;;;;;;;8.81;80.47;98139.77;2925579;81;20971;-78
2021/12/01 12:39:39;;;;;;;3.40;2.27;;;;;;;8.93;79.39;98137.59;2922447;81;21078;-74
2021/12/01 12:43:44;;;;;;;2.50;1.60;;;;;;;8.95;79.35;98133.80;2911381;81;21031;-74
2021/12/01 12:47:49;;;;;;;2.47;1.37;;;;;;;8.90;78.39;98116.24;2909679;82;21019;-73
2021/12/01 12:51:50;;;;;;;2.80;1.42;;;;;;;8.85;77.95;98101.34;2909604;82;21027;-72
2021/12/01 12:55:52;;;;;;;0.65;0.50;;;;;;;8.80;78.42;98108.95;2909698;81;20979;-72
2021/12/01 13:00:24;;;;;;;1.30;0.90;;;;;;;8.79;79.43;98113.44;2909460;80;21014;-73
2021/12/01 13:05:01;;;;;;;1.87;1.32;;;;;;;8.84;80.64;98104.96;2909721;81;21483;-74
2021/12/01 13:09:22;;;;;;;2.72;1.30;;;;;;;8.88;81.02;98098.35;2909534;82;21011;-73
2021/12/01 13:13:34;;;;;;;0.98;0.88;;;;;;;8.92;80.61;98085.08;2909474;82;21042;-71
2021/12/01 13:17:36;;;;;;;1.75;1.17;;;;;;;8.88;81.20;98089.55;2908795;81;21086;-76
2021/12/01 13:21:39;;;;;;;1.57;1.35;;;;;;;8.88;81.03;98082.45;2909396;82;21042;-75
2021/12/01 13:25:45;;;;;;;1.55;0.80;;;;;;;8.92;81.69;98074.47;2909475;82;20982;-73
2021/12/01 13:29:47;;;;;;;1.47;0.90;;;;;;;8.83;80.34;98088.73;2905290;80;21000;-76
2021/12/01 13:34:12;;;;;;;3.25;1.25;;;;;;;8.80;80.20;98080.63;2909574;81;21011;-74
2021/12/01 13:38:13;;;;;;;1.20;1.05;;;;;;;8.80;80.23;98078.47;2909523;82;21062;-74
2021/12/01 13:42:23;;;;;;;2.10;1.40;;;;;;;8.77;80.92;98066.88;2914222;81;21697;-73
2021/12/01 13:46:26;;;;;;;1.70;1.50;;;;;;;8.77;80.96;98072.18;2922200;81;20983;-77
2021/12/01 13:50:29;;;;;;;2.45;2.15;;;;;;;8.82;80.60;98061.41;2922093;81;20959;-77
2021/12/01 13:54:31;;;;;;;2.95;1.27;;;;;;;8.83;79.74;98064.38;2921419;81;20980;-75
2021/12/01 13:58:33;;;;;;;2.92;1.90;;;;;;;8.82;79.37;98059.23;2921969;81;21010;-73
2021/12/01 14:02:34;;;;;;;11.30;4.75;;;;;;;8.74;80.17;98042.04;2922126;81;21016;-73
2021/12/01 14:06:40;;;;;;;8.78;4.80;;;;;;;8.64;80.07;98047.53;2921915;81;21006;-74
2021/12/01 14:10:55;;;;;;;3.85;1.57;;;;;;;8.59;80.63;98032.64;2922570;81;21030;-77
2021/12/01 14:14:57;;;;;;;6.97;3.05;;;;;;;8.58;81.04;98015.89;2921861;81;20987;-74
2021/12/01 14:19:00;;;;;;;3.95;3.25;;;;;;;8.68;81.06;98011.25;2920561;81;21058;-73
2021/12/01 14:23:03;;;;;;;46.33;26.10;;;;;;;8.79;81.41;98015.36;2921055;81;21074;-71
2021/12/01 14:27:07;;;;;;;87.05;47.08;;;;;;;8.88;81.59;98008.20;2921080;81;21002;-72
2021/12/01 14:31:10;;;;;;;65.90;35.58;;;;;;;8.91;80.26;98005.21;2920947;80;21614;-69
2021/12/01 14:35:13;;;;;;;27.58;15.60;;;;;;;8.88;82.80;97997.61;2948144;80;21024;-73
2021/12/01 14:39:18;;;;;;;21.17;14.28;;;;;;;8.69;83.05;97990.38;2947631;80;21071;-76
2021/12/01 14:43:32;;;;;;;34.40;19.35;;;;;;;8.64;81.47;97982.08;2964438;80;21063;-71
2021/12/01 14:47:34;;;;;;;25.82;14.38;;;;;;;8.61;81.81;97981.10;2976440;80;20999;-75
2021/12/01 14:51:41;;;;;;;30.95;19.57;;;;;;;8.50;81.83;97973.53;2978943;80;21036;-75
2021/12/01 14:55:45;;;;;;;33.28;21.95;;;;;;;8.47;82.46;97959.27;2979456;80;20983;-70
2021/12/01 14:59:53;;;;;;;19.07;11.35;;;;;;;8.41;81.12;97947.01;2978887;79;21010;-72
2021/12/01 15:04:08;;;;;;;12.98;9.18;;;;;;;8.42;80.60;97943.36;2978984;79;21069;-76
2021/12/01 15:08:13;;;;;;;15.85;8.55;;;;;;;8.41;80.49;97939.58;2978901;79;21324;-73
2021/12/01 15:12:28;;;;;;;14.03;6.97;;;;;;;8.34;79.70;97934.13;2979253;79;21007;-71
2021/12/01 15:16:34;;;;;;;4.60;3.47;;;;;;;8.34;79.96;97925.33;2978484;80;21056;-72
2021/12/01 15:20:57;;;;;;;4.97;2.92;;;;;;;8.26;79.26;97914.29;2978033;80;21038;-73
2021/12/01 15:24:59;;;;;;;3.80;2.80;;;;;;;8.29;79.00;97913.95;2979317;80;20979;-75
2021/12/01 15:29:11;;;;;;;7.22;3.50;;;;;;;8.26;79.02;97911.64;2978674;80;21308;-69
2021/12/01 15:33:17;;;;;;;8.40;4.65;;;;;;;8.28;79.11;97917.08;2978411;79;20998;-75
2021/12/01 15:37:19;;;;;;;10.10;6.12;;;;;;;8.29;79.67;97914.75;2979453;79;20978;-72
2021/12/01 15:41:23;;;;;;;17.05;9.38;;;;;;;8.27;80.30;97903.50;2979569;80;21054;-73
2021/12/01 15:45:26;;;;;;;5.95;3.67;;;;;;;8.21;80.38;97898.05;2979543;79;21478;-75
2021/12/01 15:49:28;;;;;;;7.08;3.83;;;;;;;8.22;80.79;97886.47;2979815;79;21054;-70
2021/12/01 15:53:31;;;;;;;5.97;2.98;;;;;;;8.23;80.55;97874.87;2979581;79;21059;-74
2021/12/01 15:57:33;;;;;;;6.33;3.02;;;;;;;8.22;81.01;97874.06;2979873;79;21031;-76
2021/12/01 16:01:36;;;;;;;4.72;3.55;;;;;;;8.21;80.73;97868.92;2979615;80;21085;-74
2021/12/01 16:05:37;;;;;;;7.58;4.72;;;;;;;8.27;80.81;97859.00;2979623;80;21055;-72
2021/12/01 16:09:39;;;;;;;4.55;3.52;;;;;;;8.31;80.63;97854.16;2979462;80;21078;-71
2021/12/01 16:13:42;;;;;;;4.87;3.62;;;;;;;8.28;80.80;97856.67;2979334;80;21055;-71
2021/12/01 16:17:44;;;;;;;4.85;3.75;;;;;;;8.32;80.60;97847.86;2979474;80;21090;-71
2021/12/01 16:21:46;;;;;;;6.45;3.90;;;;;;;8.28;80.57;97850.05;2979417;80;21054;-71
2021/12/01 16:25:48;;;;;;;6.45;3.70;;;;;;;8.30;80.66;97853.35;2979374;80;21518;-74
2021/12/01 16:29:51;;;;;;;4.28;2.50;;;;;;;8.27;80.36;97839.13;2979064;80;21009;-72
2021/12/01 16:33:53;;;;;;;4.50;3.60;;;;;;;8.27;80.29;97837.80;2978666;80;20991;-75
2021/12/01 16:37:58;;;;;;;3.22;2.92;;;;;;;8.30;80.49;97841.43;2978671;80;21035;-76
2021/12/01 16:42:00;;;;;;;2.83;2.40;;;;;;;8.26;80.90;97829.53;2978516;80;21015;-76
2021/12/01 16:46:04;;;;;;;3.90;3.27;;;;;;;8.25;81.15;97815.94;2975469;80;21067;-74
2021/12/01 16:50:07;;;;;;;4.05;3.30;;;;;;;8.23;81.28;97806.02;2974936;80;20996;-73
2021/12/01 16:54:10;;;;;;;3.27;2.33;;;;;;;8.28;81.14;97802.38;2974747;80;21002;-75
2021/12/01 16:58:11;;;;;;;3.58;3.20;;;;;;;8.22;80.72;97791.13;2973478;79;21061;-76
2021/12/01 17:02:15;;;;;;;3.70;3.37;;;;;;;8.25;80.94;97781.02;2973333;79;21011;-76
2021/12/01 17:06:32;;;;;;;4.72;3.33;;;;;;;8.26;80.91;97781.86;2973822;79;21046;-74
2021/12/01 17:10:33;;;;;;;3.50;3.00;;;;;;;8.23;80.89;97772.91;2973516;79;21621;-75
2021/12/01 17:14:41;;;;;;;6.47;4.30;;;;;;;8.26;80.71;97765.97;2973717;80;20998;-74
2021/12/01 17:18:43;;;;;;;4.97;3.90;;;;;;;8.21;80.87;97766.48;2973674;79;21085;-75
2021/12/01 17:22:46;;;;;;;7.67;4.78;;;;;;;8.23;80.93;97764.97;2972796;80;21597;-73
2021/12/01 17:26:48;;;;;;;4.03;3.62;;;;;;;8.26;80.47;97760.67;2972949;79;21046;-76
2021/12/01 17:35:00;;;;;;;4.87;3.70;;;;;;;8.17;80.11;97745.80;2972729;79;21093;-72
2021/12/01 17:39:02;;;;;;;4.35;3.95;;;;;;;8.17;80.06;97744.00;2973070;79;21382;-73
2021/12/01 17:43:05;;;;;;;6.05;3.65;;;;;;;8.19;80.09;97746.45;2923097;80;21022;-74
2021/12/01 17:47:09;;;;;;;4.60;3.17;;;;;;;8.12;79.95;97741.86;2916904;80;21070;-69
2021/12/01 17:51:14;;;;;;;6.03;3.30;;;;;;;8.10;79.91;97735.91;2917124;81;21073;-71
2021/12/01 17:55:19;;;;;;;3.85;3.12;;;;;;;8.05;79.82;97740.88;2917329;81;21428;-72
2021/12/01 17:59:21;;;;;;;5.42;3.37;;;;;;;8.12;79.61;97740.53;2917058;81;21086;-71
2021/12/01 18:03:23;;;;;;;3.70;3.10;;;;;;;8.07;79.57;97734.94;2917343;81;21069;-70
2021/12/01 18:07:25;;;;;;;9.48;4.42;;;;;;;8.07;79.58;97727.00;2917423;81;21001;-71
2021/12/01 18:11:27;;;;;;;5.28;3.90;;;;;;;8.03;79.96;97723.02;2917105;81;21034;-69
2021/12/01 18:15:29;;;;;;;4.45;3.17;;;;;;;8.01;80.38;97723.70;2917823;81;21042;-74
2021/12/01 18:19:31;;;;;;;8.43;5.12;;;;;;;8.02;80.66;97732.48;2917494;81;21054;-69
2021/12/01 18:23:33;;;;;;;11.83;9.30;;;;;;;8.04;80.30;97732.61;2917754;80;21023;-75
2021/12/01 18:27:35;;;;;;;6.67;5.50;;;;;;;8.03;80.64;97726.99;2922585;81;21085;-74
2021/12/01 18:31:39;;;;;;;7.53;4.55;;;;;;;8.02;80.60;97721.37;2922354;81;21014;-74
2021/12/01 18:35:41;;;;;;;9.65;5.65;;;;;;;8.10;80.30;97725.33;2921585;81;22321;-72
2021/12/01 18:39:43;;;;;;;19.15;9.45;;;;;;;8.15;80.37;97722.14;2922491;81;21050;-70
2021/12/01 18:43:46;;;;;;;36.30;21.75;;;;;;;8.09;80.64;97721.03;2912748;81;21067;-72
2021/12/01 18:47:54;;;;;;;49.30;28.27;;;;;;;7.96;81.48;97718.94;2884177;80;21069;-73
2021/12/01 18:51:53;;;;;;;20.92;11.33;;;;;;;7.95;81.80;97713.29;2909042;81;21038;-74
2021/12/01 18:55:56;;;;;;;9.98;7.03;;;;;;;7.92;82.26;97718.94;2910450;82;23304;-75
2021/12/01 19:00:00;;;;;;;14.60;9.73;;;;;;;7.89;82.55;97709.21;2911098;82;21054;-72
2021/12/01 19:04:01;;;;;;;6.30;4.90;;;;;;;7.88;83.24;97712.86;2902504;82;21038;-73
2021/12/01 19:08:04;;;;;;;14.95;9.60;;;;;;;7.87;83.52;97714.66;2902491;80;21587;-71
2021/12/01 19:12:08;;;;;;;13.22;9.65;;;;;;;7.93;83.70;97719.77;2902114;81;21062;-73
2021/12/01 19:16:10;;;;;;;17.12;11.25;;;;;;;8.02;83.75;97721.89;2875101;80;21060;-71
2021/12/01 19:20:13;;;;;;;7.15;4.80;;;;;;;8.19;82.65;97724.79;2868290;82;21068;-73
2021/12/01 19:24:15;;;;;;;7.37;4.72;;;;;;;8.32;82.28;97717.59;2868326;83;21013;-75